Time;durP1;ratioP1;P1;durP2;ratioP2;P2;SDS_P1;SDS_P2;PMS_P1;PMS_P2;Temp;Humidity;BMP_temperature;BMP_pressure;BME280_temperature;BME280_humidity;BME280_pressure;Samples;Min_cycle;Max_cycle;Signal;HPM_P1;HPM_P2
2023/08/09 00:02:45;;;;;;;9.02;3.55;;;;;;;18.13;55.66;100546.38;5439896;32;34112;-71
2023/08/09 00:05:47;;;;;;;7.72;3.87;;;;;;;18.26;55.54;100553.50;5442623;32;34507;-71
2023/08/09 00:08:49;;;;;;;9.55;4.10;;;;;;;18.46;55.20;100555.66;5439880;32;35374;-69
2023/08/09 00:11:52;;;;;;;10.63;4.22;;;;;;;19.22;52.52;100549.41;5438332;32;34181;-69
2023/08/09 00:14:54;;;;;;;8.15;3.97;;;;;;;19.31;52.11;100556.72;5442674;32;34724;-70
2023/08/09 00:17:56;;;;;;;7.13;3.63;;;;;;;18.52;53.83;100562.34;5442019;32;34750;-69
2023/08/09 00:20:58;;;;;;;8.95;4.28;;;;;;;17.91;56.39;100551.44;5444346;32;34641;-69
2023/08/09 00:24:00;;;;;;;9.77;3.87;;;;;;;18.32;54.87;100553.09;5442344;32;34755;-68
2023/08/09 00:27:02;;;;;;;10.77;3.93;;;;;;;17.71;57.29;100558.09;5444911;32;35327;-69
2023/08/09 00:30:06;;;;;;;;;;;;;;;18.41;55.22;100565.75;5426597;32;34197;-69
2023/08/09 00:33:08;;;;;;;7.60;3.70;;;;;;;17.91;56.57;100559.41;5441690;32;34895;-70
2023/08/09 00:36:10;;;;;;;8.95;3.72;;;;;;;17.99;56.11;100565.06;5444688;32;34697;-71
2023/08/09 00:39:12;;;;;;;9.32;3.60;;;;;;;18.11;55.59;100566.91;5429097;32;34242;-69
2023/08/09 00:42:14;;;;;;;7.43;3.70;;;;;;;17.76;56.77;100563.06;5443271;32;35000;-69
2023/08/09 00:45:16;;;;;;;8.95;3.78;;;;;;;17.23;58.47;100552.31;5410161;32;34507;-70
2023/08/09 00:48:19;;;;;;;6.85;3.35;;;;;;;17.22;58.56;100557.72;5429002;32;34496;-70
2023/08/09 00:51:21;;;;;;;9.32;3.75;;;;;;;17.18;59.28;100564.16;5441696;32;35359;-70
2023/08/09 00:54:23;;;;;;;10.25;3.83;;;;;;;17.21;58.95;100548.06;5441492;32;35229;-70
2023/08/09 00:57:26;;;;;;;8.82;3.80;;;;;;;16.93;59.72;100548.94;5430494;32;34413;-69
2023/08/09 01:00:28;;;;;;;7.75;3.40;;;;;;;17.55;57.90;100546.72;5430006;32;34674;-69
2023/08/09 01:03:30;;;;;;;8.27;3.80;;;;;;;17.48;57.87;100548.06;5446763;32;35088;-69
2023/08/09 01:06:53;;;;;;;10.02;3.58;;;;;;;17.22;59.02;100555.06;5441289;32;34027;-70
2023/08/09 01:09:58;;;;;;;6.97;3.22;;;;;;;17.73;57.51;100560.62;5429448;32;34586;-70
2023/08/09 01:13:04;;;;;;;7.20;3.17;;;;;;;17.02;59.21;100554.53;5446121;32;34503;-69
2023/08/09 01:16:07;;;;;;;9.05;3.50;;;;;;;17.11;59.68;100555.75;5440722;32;34798;-70
2023/08/09 01:19:14;;;;;;;5.67;3.07;;;;;;;17.28;58.54;100554.69;5432464;32;34076;-70
2023/08/09 01:22:21;;;;;;;7.93;3.23;;;;;;;17.02;59.76;100565.16;5426875;32;34851;-70
2023/08/09 01:25:24;;;;;;;7.00;3.50;;;;;;;17.02;59.47;100557.19;5437786;32;35386;-69
2023/08/09 01:28:26;;;;;;;9.63;3.30;;;;;;;18.31;55.18;100546.91;5440361;32;34984;-69
2023/08/09 01:31:28;;;;;;;6.90;3.40;;;;;;;17.43;57.49;100553.69;5440936;32;35233;-70
2023/08/09 01:34:31;;;;;;;8.05;3.17;;;;;;;18.12;55.04;100557.12;5445473;32;35512;-69
2023/08/09 01:37:42;;;;;;;;;;;;;;;17.18;57.64;100556.19;5427786;32;34674;-69
2023/08/09 01:40:44;;;;;;;6.07;2.83;;;;;;;18.22;54.31;100554.66;5443547;32;35490;-70
2023/08/09 01:43:46;;;;;;;6.10;2.67;;;;;;;17.65;55.89;100553.16;5434950;32;35087;-69
2023/08/09 01:46:51;;;;;;;5.57;2.90;;;;;;;18.12;54.35;100554.47;5415562;32;33966;-70
2023/08/09 01:49:54;;;;;;;7.15;2.95;;;;;;;17.14;57.17;100555.56;5443756;32;34954;-69
2023/08/09 01:52:56;;;;;;;8.30;3.30;;;;;;;17.19;57.06;100550.78;5434381;32;34892;-70
2023/08/09 01:55:58;;;;;;;5.93;3.22;;;;;;;17.98;54.84;100550.06;5444516;32;34795;-70
2023/08/09 01:59:01;;;;;;;6.20;3.30;;;;;;;17.71;55.46;100546.53;5427726;32;34616;-69
2023/08/09 02:02:03;;;;;;;5.90;3.00;;;;;;;18.13;54.47;100545.50;5433709;32;34563;-69
2023/08/09 02:05:06;;;;;;;7.90;3.05;;;;;;;17.60;55.60;100540.16;5413895;32;34890;-69
2023/08/09 02:08:08;;;;;;;8.02;3.33;;;;;;;18.06;54.68;100544.22;5442135;32;35110;-68
2023/08/09 02:11:10;;;;;;;7.17;3.20;;;;;;;17.76;55.11;100540.00;5443049;32;34223;-70
2023/08/09 02:14:12;;;;;;;8.10;3.07;;;;;;;17.55;56.07;100541.41;5441235;32;35312;-68
2023/08/09 02:17:14;;;;;;;6.83;3.30;;;;;;;17.27;56.84;100545.84;5445555;32;34943;-69
2023/08/09 02:20:19;;;;;;;11.15;3.35;;;;;;;17.35;56.97;100549.81;5440785;32;33997;-70
2023/08/09 02:23:22;;;;;;;6.50;3.20;;;;;;;17.29;56.85;100551.06;5431610;32;34244;-69
2023/08/09 02:26:24;;;;;;;5.93;3.20;;;;;;;17.79;55.93;100545.13;5425713;32;34106;-70
2023/08/09 02:29:26;;;;;;;7.07;3.30;;;;;;;17.97;55.22;100558.13;5442090;32;34135;-69
2023/08/09 02:32:29;;;;;;;9.35;3.53;;;;;;;17.77;55.89;100556.81;5444474;32;34906;-69
2023/08/09 02:35:33;;;;;;;7.82;3.60;;;;;;;17.53;57.07;100560.09;5439155;32;34345;-69
2023/08/09 02:38:35;;;;;;;7.27;3.37;;;;;;;17.95;55.57;100560.06;5415312;32;34760;-70
2023/08/09 02:41:41;;;;;;;7.93;3.63;;;;;;;17.49;57.20;100568.38;5436676;32;34049;-69
2023/08/09 02:44:44;;;;;;;10.17;3.93;;;;;;;17.43;57.86;100560.78;5443489;32;33923;-68
2023/08/09 02:47:46;;;;;;;6.32;3.25;;;;;;;17.95;56.25;100562.72;5440531;32;34220;-69
2023/08/09 02:50:48;;;;;;;8.03;3.27;;;;;;;16.87;59.77;100568.75;5439658;32;35945;-69
2023/08/09 02:53:58;;;;;;;8.63;3.67;;;;;;;16.59;60.78;100572.22;5445815;32;34844;-68
2023/08/09 02:57:00;;;;;;;6.87;3.73;;;;;;;16.68;60.85;100577.00;5440461;32;34716;-70
2023/08/09 03:00:04;;;;;;;10.15;4.12;;;;;;;17.69;58.23;100570.56;5445555;32;35229;-69
2023/08/09 03:03:06;;;;;;;;;;;;;;;17.63;58.20;100575.44;5440976;32;34852;-71
2023/08/09 03:06:08;;;;;;;8.17;3.60;;;;;;;17.75;58.14;100567.53;5442825;32;35347;-68
2023/08/09 03:09:10;;;;;;;8.70;4.23;;;;;;;16.92;60.35;100584.41;5426718;32;34871;-69
2023/08/09 03:12:12;;;;;;;10.55;3.97;;;;;;;17.17;60.31;100573.94;5439536;32;34418;-69
2023/08/09 03:15:15;;;;;;;9.67;3.83;;;;;;;16.97;60.89;100582.31;5444768;32;35180;-68
2023/08/09 03:18:18;;;;;;;7.78;3.67;;;;;;;17.80;58.26;100576.06;5420951;32;34571;-70
2023/08/09 03:21:20;;;;;;;8.40;3.83;;;;;;;17.22;60.04;100587.78;5426560;32;34343;-68
2023/08/09 03:24:22;;;;;;;11.00;4.00;;;;;;;16.37;62.44;100590.41;5440639;32;34859;-70
2023/08/09 03:27:24;;;;;;;11.07;4.20;;;;;;;17.45;59.43;100585.44;5442475;32;35183;-68
2023/08/09 03:30:26;;;;;;;9.77;3.77;;;;;;;17.92;57.69;100593.03;5427379;32;34395;-69
2023/08/09 03:33:29;;;;;;;7.10;3.60;;;;;;;16.99;60.34;100591.03;5440010;32;35374;-69
2023/08/09 03:36:31;;;;;;;8.43;3.97;;;;;;;17.31;59.01;100592.50;5428918;32;35249;-69
2023/08/09 03:39:33;;;;;;;10.20;3.85;;;;;;;17.50;58.65;100584.22;5439772;32;34703;-69
2023/08/09 03:42:35;;;;;;;10.03;4.27;;;;;;;17.81;57.82;100588.41;5440544;32;34758;-68
2023/08/09 03:45:38;;;;;;;7.68;3.72;;;;;;;17.54;58.79;100592.84;5437081;32;34450;-68
2023/08/09 03:48:40;;;;;;;8.35;3.55;;;;;;;17.78;57.65;100593.94;5442961;32;34155;-69
2023/08/09 03:51:42;;;;;;;8.33;3.43;;;;;;;17.84;57.24;100592.69;5442854;32;34090;-68
2023/08/09 03:54:48;;;;;;;10.53;4.10;;;;;;;17.02;59.83;100588.19;5434349;32;34652;-68
2023/08/09 03:57:51;;;;;;;8.70;4.03;;;;;;;17.99;56.71;100581.03;5445925;32;34634;-69
2023/08/09 04:00:53;;;;;;;10.23;4.40;;;;;;;17.85;56.76;100586.41;5428986;32;34677;-69
2023/08/09 04:03:56;;;;;;;10.05;3.87;;;;;;;18.03;56.07;100584.31;5432571;32;34237;-69
2023/08/09 04:06:59;;;;;;;10.73;3.73;;;;;;;17.11;58.90;100592.06;5426179;32;34149;-70
2023/08/09 04:10:02;;;;;;;8.90;4.03;;;;;;;17.15;58.78;100598.91;5443895;32;35161;-70
2023/08/09 04:13:04;;;;;;;11.85;4.22;;;;;;;16.92;60.02;100597.66;5435846;32;34784;-69
2023/08/09 04:16:06;;;;;;;11.27;4.03;;;;;;;17.14;59.49;100600.72;5440790;32;34669;-70
2023/08/09 04:19:08;;;;;;;11.07;4.45;;;;;;;17.11;60.00;100602.69;5446617;32;35371;-70
2023/08/09 04:22:10;;;;;;;8.93;4.00;;;;;;;17.46;59.04;100593.34;5441051;32;34083;-69
2023/08/09 04:25:13;;;;;;;9.60;4.43;;;;;;;17.44;58.80;100605.84;5445639;32;34164;-69
2023/08/09 04:28:15;;;;;;;9.63;4.35;;;;;;;17.68;58.13;100598.09;5441404;32;36054;-71
2023/08/09 04:31:17;;;;;;;9.70;4.60;;;;;;;17.38;59.00;100608.91;5442590;32;35070;-69
2023/08/09 04:34:19;;;;;;;9.07;4.47;;;;;;;17.68;58.43;100594.59;5445955;32;34254;-70
2023/08/09 04:37:23;;;;;;;9.95;4.50;;;;;;;18.11;57.11;100593.50;5427849;32;34139;-70
2023/08/09 04:40:25;;;;;;;11.50;4.90;;;;;;;18.58;55.90;100593.88;5430915;32;34168;-70
2023/08/09 04:43:27;;;;;;;11.03;4.80;;;;;;;18.81;54.94;100598.50;5439451;32;35234;-69
2023/08/09 04:46:30;;;;;;;10.60;4.60;;;;;;;18.26;55.81;100596.06;5443590;32;34869;-70
2023/08/09 04:49:32;;;;;;;10.90;4.65;;;;;;;17.93;57.19;100599.19;5442302;32;35063;-69
2023/08/09 04:52:35;;;;;;;9.07;4.72;;;;;;;18.07;57.07;100597.31;5441550;32;35123;-70
2023/08/09 04:55:37;;;;;;;;;;;;;;;18.68;54.87;100605.63;5444889;32;34658;-69
2023/08/09 04:58:39;;;;;;;12.77;4.80;;;;;;;19.13;53.70;100600.69;5425590;32;34364;-68
2023/08/09 05:01:41;;;;;;;9.10;4.70;;;;;;;18.54;54.98;100600.34;5445056;32;34132;-68
2023/08/09 05:04:44;;;;;;;10.50;5.00;;;;;;;18.74;54.43;100599.87;5425406;32;34586;-70
2023/08/09 05:07:46;;;;;;;8.68;4.55;;;;;;;18.50;55.58;100597.06;5443861;32;34442;-70
2023/08/09 05:10:48;;;;;;;9.53;4.40;;;;;;;18.86;54.30;100599.00;5440951;32;34476;-71
2023/08/09 05:13:50;;;;;;;9.00;4.35;;;;;;;18.83;54.66;100593.06;5440783;32;34715;-70
2023/08/09 05:16:59;;;;;;;11.57;5.10;;;;;;;18.43;55.51;100597.59;5444142;32;35381;-69
2023/08/09 05:20:03;;;;;;;12.27;5.70;;;;;;;18.71;54.69;100607.22;5441404;32;35004;-70
2023/08/09 05:23:05;;;;;;;10.02;4.93;;;;;;;17.55;58.42;100621.13;5431033;32;34925;-71
2023/08/09 05:26:07;;;;;;;11.63;4.78;;;;;;;18.38;56.67;100619.19;5441085;32;34958;-70
2023/08/09 05:29:09;;;;;;;11.07;5.03;;;;;;;19.14;53.50;100615.72;5445621;32;34956;-69
2023/08/09 05:32:12;;;;;;;8.35;4.20;;;;;;;19.28;53.54;100623.56;5440201;32;34665;-69
2023/08/09 05:35:14;;;;;;;11.35;4.97;;;;;;;19.40;52.79;100614.69;5424893;32;34835;-69
2023/08/09 05:38:16;;;;;;;10.85;4.80;;;;;;;19.70;52.04;100611.62;5443644;32;35043;-71
2023/08/09 05:41:18;;;;;;;13.88;5.30;;;;;;;19.24;53.50;100615.91;5437356;32;33976;-67
2023/08/09 05:44:21;;;;;;;16.08;6.03;;;;;;;18.94;54.88;100617.13;5388571;32;34152;-67
2023/08/09 05:47:23;;;;;;;10.77;4.95;;;;;;;19.28;53.61;100618.25;5395200;32;35621;-76
2023/08/09 05:50:25;;;;;;;12.00;5.37;;;;;;;19.07;54.40;100614.47;5396943;32;35211;-74
2023/08/09 05:53:27;;;;;;;12.02;4.90;;;;;;;19.35;53.80;100608.84;5394150;32;34555;-73
2023/08/09 05:56:29;;;;;;;13.85;4.57;;;;;;;20.25;51.66;100604.84;5391067;32;34121;-67
2023/08/09 05:59:32;;;;;;;11.00;4.53;;;;;;;20.93;49.30;100613.00;5394648;32;34118;-71
2023/08/09 06:02:34;;;;;;;10.27;4.45;;;;;;;22.41;45.58;100606.22;5374911;32;37127;-72
2023/08/09 06:05:36;;;;;;;;;;;;;;;22.31;45.08;100605.31;5375796;32;35868;-71
2023/08/09 06:08:39;;;;;;;11.67;4.23;;;;;;;22.94;43.73;100604.31;5385098;32;37626;-75
2023/08/09 06:11:44;;;;;;;10.93;4.60;;;;;;;22.79;44.06;100594.03;5388809;32;34065;-70
2023/08/09 06:14:46;;;;;;;9.35;4.47;;;;;;;23.69;41.68;100584.22;5387721;32;34561;-69
2023/08/09 06:17:49;;;;;;;12.68;5.18;;;;;;;23.47;42.60;100579.09;5379194;32;34047;-70
2023/08/09 06:20:51;;;;;;;;;;;;;;;24.01;41.20;100583.09;5378189;32;35476;-72
2023/08/09 06:23:53;;;;;;;8.00;3.47;;;;;;;25.92;37.06;100578.16;5392295;32;34506;-71
2023/08/09 06:26:56;;;;;;;10.65;3.83;;;;;;;25.76;36.96;100586.06;5384765;32;35872;-71
2023/08/09 06:29:58;;;;;;;13.73;3.67;;;;;;;24.58;39.13;100592.13;5388979;32;34079;-69
2023/08/09 06:33:03;;;;;;;8.68;3.90;;;;;;;25.04;38.64;100598.47;5380545;32;35241;-71
2023/08/09 06:36:06;;;;;;;12.50;3.70;;;;;;;23.55;41.67;100608.75;5371872;32;35740;-71
2023/08/09 06:39:09;;;;;;;8.20;3.87;;;;;;;24.37;40.27;100596.81;5391291;32;35296;-72
2023/08/09 06:42:12;;;;;;;9.90;3.70;;;;;;;25.10;38.52;100590.69;5384410;32;33521;-71
2023/08/09 06:45:14;;;;;;;10.27;4.00;;;;;;;25.69;36.90;100582.25;5374499;32;34789;-71
2023/08/09 06:48:17;;;;;;;11.25;3.80;;;;;;;24.46;39.48;100590.59;5391646;32;34072;-69
2023/08/09 06:51:21;;;;;;;8.90;3.45;;;;;;;25.36;37.92;100592.66;5385420;32;35840;-71
2023/08/09 06:54:23;;;;;;;11.27;3.97;;;;;;;26.21;35.92;100583.28;5384372;32;35728;-75
2023/08/09 06:57:26;;;;;;;7.18;3.30;;;;;;;25.32;37.57;100597.53;5391011;32;35461;-70
2023/08/09 07:00:28;;;;;;;10.65;3.60;;;;;;;28.82;31.34;100584.09;5380600;32;37319;-70
2023/08/09 07:03:30;;;;;;;10.88;4.10;;;;;;;28.65;31.66;100587.84;5393145;32;35378;-67
2023/08/09 07:06:33;;;;;;;10.23;4.18;;;;;;;25.55;37.44;100602.47;5376013;32;33896;-71
2023/08/09 07:09:35;;;;;;;7.57;3.35;;;;;;;26.37;36.14;100590.66;5390414;32;34931;-70
2023/08/09 07:12:38;;;;;;;6.90;3.55;;;;;;;28.37;32.29;100580.13;5373219;32;35491;-73
2023/08/09 07:15:42;;;;;;;11.30;3.72;;;;;;;27.87;32.72;100581.09;5389420;32;33865;-72
2023/08/09 07:18:45;;;;;;;11.12;3.35;;;;;;;24.80;38.33;100589.09;5395272;32;34150;-70
2023/08/09 07:21:47;;;;;;;8.63;3.55;;;;;;;25.69;36.93;100585.78;5387424;32;34192;-73
2023/08/09 07:24:50;;;;;;;6.35;2.92;;;;;;;26.42;35.65;100582.97;5370044;32;35263;-73
2023/08/09 07:27:52;;;;;;;8.60;3.75;;;;;;;26.73;34.88;100583.34;5389409;32;35449;-74
2023/08/09 07:30:55;;;;;;;8.25;2.90;;;;;;;26.26;35.88;100577.41;5392860;32;34841;-73
2023/08/09 07:33:57;;;;;;;9.65;3.03;;;;;;;28.53;32.18;100577.41;5393325;32;34284;-73
2023/08/09 07:37:00;;;;;;;7.10;2.60;;;;;;;28.59;32.04;100581.25;5391413;32;35371;-72
2023/08/09 07:40:04;;;;;;;8.80;2.80;;;;;;;29.03;30.84;100570.84;5390404;32;34150;-74
2023/08/09 07:43:06;;;;;;;5.32;2.60;;;;;;;28.43;31.94;100573.19;5384559;32;34281;-70
2023/08/09 07:46:09;;;;;;;7.10;2.50;;;;;;;28.54;31.19;100581.78;5390613;32;35343;-70
2023/08/09 07:49:12;;;;;;;6.43;2.40;;;;;;;28.53;31.64;100560.31;5373721;32;35021;-71
2023/08/09 07:52:14;;;;;;;5.78;2.10;;;;;;;27.23;33.75;100572.63;5393409;32;34227;-71
2023/08/09 07:55:17;;;;;;;3.83;1.92;;;;;;;29.00;30.86;100564.94;5391561;32;35559;-72
2023/08/09 07:58:20;;;;;;;8.05;2.20;;;;;;;28.50;31.08;100569.63;5382421;32;33999;-73
2023/08/09 08:01:22;;;;;;;8.23;2.10;;;;;;;26.69;33.89;100573.88;5380424;32;33271;-71
2023/08/09 08:04:25;;;;;;;10.65;2.55;;;;;;;25.57;36.03;100568.22;5390120;32;35180;-75
2023/08/09 08:07:27;;;;;;;6.82;2.17;;;;;;;26.93;33.42;100574.03;5343063;32;34397;-67
2023/08/09 08:10:31;;;;;;;;;;;;;;;26.49;34.28;100569.72;5372394;32;34839;-72
2023/08/09 08:13:38;;;;;;;10.38;2.55;;;;;;;25.87;34.94;100575.91;5379151;32;34112;-73
2023/08/09 08:16:40;;;;;;;7.62;2.47;;;;;;;27.29;33.18;100584.62;5374243;32;33382;-71
2023/08/09 08:19:43;;;;;;;9.52;2.70;;;;;;;26.61;34.57;100576.53;5380706;32;34116;-71
2023/08/09 08:22:49;;;;;;;11.65;2.60;;;;;;;26.30;35.60;100578.81;5391655;32;34404;-73
2023/08/09 08:25:51;;;;;;;6.45;2.78;;;;;;;26.13;36.23;100580.53;5370300;32;33982;-68
2023/08/09 08:28:53;;;;;;;7.10;2.50;;;;;;;25.73;36.94;100572.94;5365531;32;34151;-72
2023/08/09 08:31:55;;;;;;;5.78;2.37;;;;;;;24.46;39.97;100585.22;5370886;32;34097;-66
2023/08/09 08:35:02;;;;;;;;;;;;;;;25.62;37.18;100580.19;5367944;32;34707;-75
2023/08/09 08:38:04;;;;;;;5.80;2.08;;;;;;;25.55;37.45;100587.16;5378569;32;34941;-72
2023/08/09 08:41:08;;;;;;;10.05;2.37;;;;;;;25.51;37.38;100577.72;5371895;32;34162;-70
2023/08/09 08:44:13;;;;;;;7.90;2.10;;;;;;;25.03;38.46;100578.78;5370317;32;34082;-68
2023/08/09 08:47:16;;;;;;;10.60;2.80;;;;;;;25.08;39.04;100583.75;5348543;32;34485;-72
2023/08/09 08:50:19;;;;;;;11.85;2.20;;;;;;;24.58;40.08;100586.75;5354133;32;34363;-71
2023/08/09 08:53:21;;;;;;;;;;;;;;;25.10;39.22;100576.37;5375363;32;34999;-72
2023/08/09 08:56:23;;;;;;;7.50;1.90;;;;;;;25.65;37.58;100570.97;5377082;32;36674;-71
2023/08/09 08:59:27;;;;;;;7.18;2.03;;;;;;;25.97;37.07;100570.47;5392275;32;34206;-72
2023/08/09 09:02:29;;;;;;;7.55;2.10;;;;;;;27.32;34.24;100567.28;5368910;32;35046;-67
2023/08/09 09:05:32;;;;;;;;;;;;;;;25.89;37.17;100560.47;5360820;32;33979;-71
2023/08/09 09:08:41;;;;;;;4.15;1.83;;;;;;;27.19;34.73;100554.25;5376884;32;35002;-66
2023/08/09 09:11:44;;;;;;;9.13;1.87;;;;;;;27.65;33.80;100554.72;5383534;32;33236;-67
2023/08/09 09:14:51;;;;;;;7.78;2.00;;;;;;;27.16;34.41;100562.66;5392364;32;34100;-66
2023/08/09 09:17:53;;;;;;;4.47;1.98;;;;;;;26.11;36.05;100555.59;5385000;32;34399;-72
2023/08/09 09:20:56;;;;;;;6.28;2.00;;;;;;;26.00;36.26;100543.22;5365112;32;34309;-70
2023/08/09 09:24:07;;;;;;;4.30;1.70;;;;;;;26.30;35.82;100557.25;5388435;32;35682;-74
2023/08/09 09:27:10;;;;;;;7.37;1.92;;;;;;;25.81;36.57;100555.00;5366437;32;35255;-79
2023/08/09 09:30:19;;;;;;;6.97;2.10;;;;;;;25.48;37.41;100564.56;5357678;32;35024;-71
2023/08/09 09:33:32;;;;;;;7.50;1.90;;;;;;;24.90;38.74;100564.84;5388374;32;34025;-72
2023/08/09 09:36:42;;;;;;;8.07;2.15;;;;;;;24.42;39.90;100557.81;5390629;32;35135;-67
2023/08/09 09:39:46;;;;;;;5.32;1.83;;;;;;;24.40;39.95;100565.13;5387645;32;32950;-74
2023/08/09 09:42:50;;;;;;;5.72;2.00;;;;;;;24.78;39.15;100563.34;5384668;32;34241;-68
2023/08/09 09:45:57;;;;;;;5.47;2.17;;;;;;;25.34;38.43;100571.31;5373671;32;34843;-68
2023/08/09 09:49:04;;;;;;;3.30;2.00;;;;;;;25.15;38.64;100563.34;5373536;32;33959;-69
2023/08/09 09:52:07;;;;;;;3.17;1.67;;;;;;;25.88;37.20;100561.44;5376415;32;35864;-70
2023/08/09 09:55:10;;;;;;;5.05;2.05;;;;;;;25.31;38.55;100552.78;5369725;32;34098;-70
2023/08/09 09:58:13;;;;;;;6.10;1.90;;;;;;;25.16;38.67;100556.97;5371270;32;36195;-74
2023/08/09 10:01:20;;;;;;;7.47;1.87;;;;;;;25.22;38.69;100555.53;5351232;32;35353;-75
2023/08/09 10:04:26;;;;;;;4.30;1.70;;;;;;;26.27;36.78;100550.31;5371077;32;34042;-70
2023/08/09 10:07:30;;;;;;;6.22;1.70;;;;;;;26.59;35.55;100541.63;5375812;32;34152;-71
2023/08/09 10:10:34;;;;;;;6.85;2.08;;;;;;;25.95;36.64;100539.28;5386148;32;34016;-70
2023/08/09 10:13:39;;;;;;;7.50;2.83;;;;;;;27.37;34.44;100529.84;5376238;32;34215;-74
2023/08/09 10:16:45;;;;;;;4.90;1.65;;;;;;;26.68;35.68;100547.94;5386853;32;32842;-70
2023/08/09 10:19:49;;;;;;;5.85;1.50;;;;;;;27.14;33.88;100537.72;5394126;32;34747;-74
2023/08/09 10:22:55;;;;;;;2.92;1.27;;;;;;;27.16;33.70;100528.44;5370342;32;34734;-69
2023/08/09 10:25:58;;;;;;;3.42;1.55;;;;;;;28.02;31.71;100521.84;5379683;32;34519;-69
2023/08/09 10:29:08;;;;;;;3.62;1.33;;;;;;;26.29;34.87;100525.94;5356287;32;34087;-70
2023/08/09 10:32:10;;;;;;;3.58;1.52;;;;;;;26.19;34.20;100521.47;5389456;32;34855;-70
2023/08/09 10:35:19;;;;;;;3.45;1.33;;;;;;;26.79;33.34;100522.53;5372528;32;36440;-71
2023/08/09 10:38:41;;;;;;;2.33;1.40;;;;;;;27.33;32.29;100521.25;5367186;32;33804;-68
2023/08/09 10:41:58;;;;;;;2.80;1.25;;;;;;;27.55;32.05;100519.75;5387093;32;33988;-66
2023/08/09 10:45:04;;;;;;;3.53;1.42;;;;;;;26.30;34.44;100522.22;5386734;32;34080;-70
2023/08/09 10:48:21;;;;;;;3.00;1.45;;;;;;;26.36;34.46;100521.59;5370179;32;34026;-72
2023/08/09 10:51:24;;;;;;;4.80;1.52;;;;;;;26.03;35.52;100520.53;5379054;32;34071;-67
2023/08/09 10:54:26;;;;;;;2.00;1.37;;;;;;;26.14;35.29;100512.19;5389030;32;34139;-66
2023/08/09 10:57:40;;;;;;;3.03;1.50;;;;;;;26.68;34.27;100521.81;5385770;32;33048;-67
2023/08/09 11:00:43;;;;;;;3.85;1.70;;;;;;;26.86;34.13;100524.44;5375159;32;35101;-64
2023/08/09 11:03:49;;;;;;;2.53;1.55;;;;;;;26.13;35.68;100526.66;5387126;32;34315;-69
2023/08/09 11:06:52;;;;;;;2.67;1.40;;;;;;;26.43;35.33;100522.69;5374389;32;34133;-71
2023/08/09 11:09:54;;;;;;;5.00;1.73;;;;;;;26.77;34.37;100520.00;5387957;32;34296;-70
2023/08/09 11:12:57;;;;;;;3.95;1.58;;;;;;;26.32;35.69;100521.06;5390132;32;33931;-68
2023/08/09 11:16:07;;;;;;;3.85;2.08;;;;;;;26.54;34.98;100525.13;5389625;32;35420;-68
2023/08/09 11:19:14;;;;;;;2.00;1.42;;;;;;;27.32;34.30;100514.16;5375393;32;34566;-66
2023/08/09 11:22:34;;;;;;;2.35;1.50;;;;;;;27.87;33.03;100510.03;5379746;32;34109;-71
2023/08/09 11:25:38;;;;;;;3.42;1.50;;;;;;;27.38;32.70;100502.72;5375203;32;35519;-70
2023/08/09 11:28:41;;;;;;;6.32;3.62;;;;;;;27.43;32.87;100500.34;5383025;32;34218;-67
2023/08/09 11:31:45;;;;;;;2.37;1.15;;;;;;;25.97;36.01;100508.53;5370490;32;35447;-71
2023/08/09 11:34:48;;;;;;;3.60;1.40;;;;;;;26.57;34.19;100502.38;5393589;32;33810;-70
2023/08/09 11:37:52;;;;;;;2.72;1.40;;;;;;;26.34;35.08;100508.28;5383303;32;34081;-72
2023/08/09 11:40:54;;;;;;;5.05;2.15;;;;;;;26.14;35.09;100512.19;5360308;32;33876;-75
2023/08/09 11:43:57;;;;;;;;;;;;;;;26.00;35.72;100505.50;5393715;32;33501;-75
2023/08/09 11:47:01;;;;;;;5.22;2.03;;;;;;;26.65;34.48;100510.50;5390456;32;35761;-72
2023/08/09 11:50:23;;;;;;;2.58;1.80;;;;;;;25.83;35.54;100501.87;5390783;32;35656;-72
2023/08/09 11:53:28;;;;;;;5.28;1.48;;;;;;;26.67;33.21;100503.97;5386206;32;34736;-71
2023/08/09 11:56:32;;;;;;;3.58;1.55;;;;;;;26.05;34.26;100505.06;5374653;32;35380;-72
2023/08/09 11:59:38;;;;;;;1.75;1.27;;;;;;;25.92;34.39;100505.47;5377075;32;35223;-71
2023/08/09 12:02:40;;;;;;;3.97;1.40;;;;;;;27.12;32.25;100502.81;5373340;32;34425;-70
2023/08/09 12:05:44;;;;;;;2.15;1.40;;;;;;;26.64;32.31;100506.97;5389853;32;38047;-70
2023/08/09 12:08:57;;;;;;;2.90;1.20;;;;;;;26.15;33.90;100506.66;5376012;32;35887;-71
2023/08/09 12:12:02;;;;;;;;;;;;;;;26.33;33.10;100505.75;5387473;32;34077;-72
2023/08/09 12:15:05;;;;;;;2.70;1.33;;;;;;;26.28;33.44;100503.53;5389405;32;36064;-71
2023/08/09 12:18:08;;;;;;;1.80;1.58;;;;;;;26.33;33.51;100495.81;5376020;32;34924;-72
2023/08/09 12:21:12;;;;;;;2.72;1.40;;;;;;;26.26;33.34;100500.12;5391110;32;34235;-73
2023/08/09 12:24:15;;;;;;;5.45;1.80;;;;;;;25.73;34.60;100509.16;5391438;32;35303;-74
2023/08/09 12:27:18;;;;;;;;;;;;;;;24.76;37.00;100503.50;5379458;32;34126;-69
2023/08/09 12:30:20;;;;;;;3.58;1.60;;;;;;;26.03;34.52;100501.69;5388211;32;35456;-70
2023/08/09 12:33:22;;;;;;;;;;;;;;;26.45;33.87;100502.66;5390266;32;34296;-70
2023/08/09 12:36:25;;;;;;;3.62;1.20;;;;;;;25.41;36.39;100508.81;5394038;32;34704;-78
2023/08/09 12:39:34;;;;;;;3.20;1.30;;;;;;;25.95;34.58;100506.97;5384616;32;32826;-73
2023/08/09 12:42:37;;;;;;;1.37;1.02;;;;;;;26.83;32.68;100505.88;5389791;32;32705;-72
2023/08/09 12:45:41;;;;;;;2.47;1.27;;;;;;;26.49;32.29;100510.44;5389863;32;34208;-69
2023/08/09 12:48:46;;;;;;;2.12;1.20;;;;;;;26.58;32.17;100514.84;5392030;32;35474;-69
2023/08/09 12:51:48;;;;;;;3.28;1.60;;;;;;;25.98;33.27;100510.22;5393207;32;35985;-69
2023/08/09 12:54:51;;;;;;;2.17;1.20;;;;;;;25.83;33.43;100501.87;5393055;32;34372;-69
2023/08/09 12:57:53;;;;;;;3.90;1.27;;;;;;;25.58;34.28;100500.75;5390236;32;35347;-69
2023/08/09 13:00:55;;;;;;;;;;;;;;;26.49;32.33;100502.34;5383286;32;34128;-71
2023/08/09 13:03:58;;;;;;;2.90;1.50;;;;;;;26.48;32.57;100497.97;5391984;32;35045;-72
2023/08/09 13:07:00;;;;;;;;;;;;;;;26.32;33.06;100493.28;5369906;32;33965;-70
2023/08/09 13:10:03;;;;;;;1.65;1.20;;;;;;;26.69;32.44;100496.53;5393408;32;34345;-69
2023/08/09 13:13:05;;;;;;;2.40;1.30;;;;;;;26.41;32.79;100493.22;5377522;32;35930;-71
2023/08/09 13:16:09;;;;;;;4.55;1.60;;;;;;;25.65;34.23;100488.37;5389601;32;32230;-70
2023/08/09 13:19:11;;;;;;;3.58;1.42;;;;;;;26.13;33.63;100480.84;5397118;32;33904;-69
2023/08/09 13:22:13;;;;;;;3.37;1.50;;;;;;;27.20;31.73;100469.62;5376822;32;35588;-78
2023/08/09 13:25:21;;;;;;;3.53;1.48;;;;;;;26.78;32.62;100478.53;5398541;32;34149;-70
2023/08/09 13:28:23;;;;;;;6.75;1.70;;;;;;;26.77;32.65;100476.84;5394683;32;34241;-69
2023/08/09 13:31:27;;;;;;;;;;;;;;;25.79;34.05;100464.63;5366997;32;35183;-73
2023/08/09 13:34:29;;;;;;;4.43;1.95;;;;;;;26.30;33.55;100469.19;5395473;32;34850;-70
2023/08/09 13:37:31;;;;;;;2.05;1.40;;;;;;;25.89;34.27;100471.63;5386968;32;34170;-70
2023/08/09 13:40:34;;;;;;;3.33;1.40;;;;;;;27.11;32.21;100467.87;5368335;32;33379;-68
2023/08/09 13:43:37;;;;;;;3.58;1.80;;;;;;;26.63;32.28;100472.09;5391395;32;36865;-69
2023/08/09 13:46:40;;;;;;;6.05;1.52;;;;;;;26.67;32.89;100474.31;5397650;32;34137;-67
2023/08/09 13:49:43;;;;;;;2.65;1.30;;;;;;;26.64;33.16;100471.06;5392484;32;35591;-71
2023/08/09 13:52:45;;;;;;;2.92;1.67;;;;;;;27.12;32.85;100464.22;5397247;32;34099;-69
2023/08/09 13:55:47;;;;;;;6.47;1.83;;;;;;;27.64;31.54;100461.25;5369717;32;35540;-72
2023/08/09 13:58:50;;;;;;;10.60;6.10;;;;;;;27.22;32.02;100462.19;5386543;32;35510;-68
2023/08/09 14:01:52;;;;;;;3.60;1.83;;;;;;;27.74;31.44;100459.22;5376446;32;35430;-67
2023/08/09 14:04:55;;;;;;;4.72;1.40;;;;;;;27.03;32.23;100459.75;5396948;32;35297;-69
2023/08/09 14:07:58;;;;;;;4.18;1.30;;;;;;;26.35;33.61;100466.03;5394817;32;34155;-71
2023/08/09 14:11:01;;;;;;;4.25;1.60;;;;;;;27.53;31.70;100449.75;5391556;32;33992;-69
2023/08/09 14:14:03;;;;;;;3.20;1.48;;;;;;;26.37;33.93;100461.31;5386088;32;152176;-68
2023/08/09 14:17:06;;;;;;;4.78;1.90;;;;;;;27.58;31.65;100437.63;5372090;32;35486;-68